Time;durP1;ratioP1;P1;durP2;ratioP2;P2;SDS_P1;SDS_P2;PMS_P1;PMS_P2;Temp;Humidity;BMP_temperature;BMP_pressure;BME280_temperature;BME280_humidity;BME280_pressure;Samples;Min_cycle;Max_cycle;Signal;HPM_P1;HPM_P2
2023/10/28 00:01:40;;;;;;;1.73;0.47;;;;;;;9.44;89.56;98762.03;4845338;29;20061;-80
2023/10/28 00:04:08;;;;;;;1.40;0.60;;;;;;;9.42;89.68;98758.66;4860302;29;20089;-82
2023/10/28 00:06:34;;;;;;;0.95;0.60;;;;;;;9.41;89.97;98757.78;4839531;29;20065;-82
2023/10/28 00:09:01;;;;;;;1.83;0.40;;;;;;;9.45;89.84;98762.00;4847880;29;20136;-81
2023/10/28 00:11:29;;;;;;;0.38;0.38;;;;;;;9.39;89.95;98764.84;4859201;29;20101;-82
2023/10/28 00:13:56;;;;;;;2.45;0.50;;;;;;;9.42;90.16;98763.88;4843285;29;20065;-81
2023/10/28 00:16:23;;;;;;;1.80;0.60;;;;;;;9.41;89.88;98768.25;4840708;29;20148;-81
2023/10/28 00:18:50;;;;;;;1.95;0.43;;;;;;;9.42;89.91;98772.56;4849689;29;20061;-82
2023/10/28 00:21:18;;;;;;;0.80;0.30;;;;;;;9.42;90.10;98766.50;4837396;29;20053;-82
2023/10/28 00:23:44;;;;;;;1.10;0.40;;;;;;;9.38;90.29;98769.22;4842742;29;20095;-81
2023/10/28 00:26:11;;;;;;;1.17;0.30;;;;;;;9.39;89.71;98763.06;4832312;29;20049;-82
2023/10/28 00:28:39;;;;;;;0.30;0.20;;;;;;;9.38;90.13;98766.63;4849020;29;20144;-82
2023/10/28 00:31:06;;;;;;;0.65;0.20;;;;;;;9.37;89.86;98766.66;4832353;29;20057;-82
2023/10/28 00:33:36;;;;;;;0.10;0.10;;;;;;;9.38;89.94;98763.13;4850616;29;20058;-82
2023/10/28 00:36:09;;;;;;;0.43;0.25;;;;;;;9.36;89.98;98765.81;4844869;29;20080;-81
2023/10/28 00:38:36;;;;;;;0.43;0.22;;;;;;;9.35;89.92;98771.09;4849630;29;20056;-80
2023/10/28 00:41:03;;;;;;;0.20;0.10;;;;;;;9.36;89.80;98778.88;4843418;29;20085;-82
2023/10/28 00:43:32;;;;;;;0.08;0.00;;;;;;;9.39;89.32;98788.41;4837378;29;20049;-82
2023/10/28 00:45:59;;;;;;;0.17;0.10;;;;;;;9.41;88.53;98789.19;4846345;29;20037;-82
2023/10/28 00:48:28;;;;;;;0.22;0.10;;;;;;;9.39;88.77;98802.34;4847169;29;20054;-81
2023/10/28 00:50:57;;;;;;;0.30;0.10;;;;;;;9.42;88.60;98803.16;4829145;29;20054;-82
2023/10/28 00:53:25;;;;;;;0.22;0.20;;;;;;;9.42;88.11;98800.53;4859485;29;20088;-82
2023/10/28 00:55:53;;;;;;;0.00;0.00;;;;;;;9.43;87.27;98808.34;4840009;29;20478;-81
2023/10/28 00:58:24;;;;;;;0.13;0.10;;;;;;;9.42;86.79;98805.78;4855171;29;20061;-81
2023/10/28 01:00:51;;;;;;;0.00;0.00;;;;;;;9.47;85.53;98811.69;4833030;29;20057;-81
2023/10/28 01:03:18;;;;;;;0.00;0.00;;;;;;;9.48;84.27;98810.78;4824710;29;20058;-82
2023/10/28 01:05:46;;;;;;;0.08;0.00;;;;;;;9.48;83.41;98808.16;4837009;29;20117;-82
2023/10/28 01:08:12;;;;;;;0.00;0.00;;;;;;;9.46;83.97;98812.56;4835260;29;20067;-82
2023/10/28 01:10:40;;;;;;;0.00;0.00;;;;;;;9.30;87.21;98812.28;4853059;29;20053;-82
2023/10/28 01:13:08;;;;;;;0.20;0.10;;;;;;;9.25;88.40;98809.84;4843048;29;20056;-82
2023/10/28 01:15:35;;;;;;;0.17;0.10;;;;;;;9.19;88.99;98820.53;4851131;28;20056;-82
2023/10/28 01:18:02;;;;;;;1.10;0.00;;;;;;;9.18;89.05;98824.03;4837802;29;20058;-81
2023/10/28 01:20:29;;;;;;;0.05;0.00;;;;;;;9.17;88.70;98827.59;4845194;29;20081;-83
2023/10/28 01:22:58;;;;;;;0.10;0.00;;;;;;;9.19;88.58;98825.75;4843933;29;20226;-82
2023/10/28 01:25:25;;;;;;;0.00;0.00;;;;;;;9.27;86.77;98818.50;4827308;29;20055;-80
2023/10/28 01:27:53;;;;;;;0.00;0.00;;;;;;;9.43;84.13;98823.16;4847235;29;20136;-82
2023/10/28 01:30:20;;;;;;;0.52;0.00;;;;;;;9.43;83.71;98812.69;4834690;29;20061;-81
2023/10/28 01:32:47;;;;;;;0.45;0.20;;;;;;;9.48;82.35;98816.00;4854079;29;20049;-82
2023/10/28 01:35:14;;;;;;;1.55;0.10;;;;;;;9.63;79.95;98804.97;4840904;29;20046;-81
2023/10/28 01:37:41;;;;;;;0.10;0.10;;;;;;;9.53;80.85;98803.59;4839160;29;20077;-82
2023/10/28 01:40:14;;;;;;;1.02;0.30;;;;;;;9.59;79.33;98803.38;4837286;29;20174;-81
2023/10/28 01:42:44;;;;;;;0.75;0.20;;;;;;;9.63;78.38;98814.59;4838030;29;20056;-81
2023/10/28 01:45:11;;;;;;;0.15;0.10;;;;;;;9.54;79.25;98814.03;4853480;29;20057;-82
2023/10/28 01:47:39;;;;;;;0.57;0.28;;;;;;;9.50;78.82;98815.06;4843159;29;20064;-81
2023/10/28 01:50:06;;;;;;;0.45;0.10;;;;;;;9.55;77.99;98822.72;4839137;29;20359;-81
2023/10/28 01:52:33;;;;;;;0.68;0.22;;;;;;;9.45;78.73;98821.38;4845922;29;20107;-82
2023/10/28 01:55:00;;;;;;;0.22;0.10;;;;;;;9.48;77.76;98822.09;4840438;29;20062;-80
2023/10/28 01:57:27;;;;;;;0.43;0.10;;;;;;;9.48;77.76;98826.50;4848754;29;20051;-81
2023/10/28 01:59:54;;;;;;;1.08;0.30;;;;;;;9.70;76.28;98827.41;4838190;29;20061;-81
2023/10/28 02:02:22;;;;;;;1.05;0.10;;;;;;;9.63;76.75;98825.94;4837016;29;20094;-81
2023/10/28 02:04:49;;;;;;;0.82;0.10;;;;;;;9.56;77.54;98829.69;4844875;29;20076;-81
2023/10/28 02:07:16;;;;;;;0.88;0.20;;;;;;;9.50;78.23;98832.50;4838795;29;20057;-82
2023/10/28 02:09:43;;;;;;;0.10;0.10;;;;;;;9.41;78.85;98833.69;4833806;29;20053;-81
2023/10/28 02:12:11;;;;;;;1.70;0.10;;;;;;;9.42;79.20;98832.81;4841025;29;20069;-80
2023/10/28 02:14:40;;;;;;;1.30;0.10;;;;;;;9.29;80.06;98829.75;4838677;29;20057;-81
2023/10/28 02:17:09;;;;;;;0.40;0.10;;;;;;;9.26;80.89;98832.50;4854922;29;20050;-82
2023/10/28 02:19:36;;;;;;;1.00;0.25;;;;;;;9.22;81.49;98836.13;4858845;29;20053;-81
2023/10/28 02:22:03;;;;;;;1.38;0.28;;;;;;;9.19;82.01;98837.06;4845019;29;20092;-81
2023/10/28 02:24:39;;;;;;;1.48;0.20;;;;;;;9.30;81.34;98834.09;4829648;29;20050;-81
2023/10/28 02:27:05;;;;;;;0.35;0.20;;;;;;;9.39;81.08;98839.00;4838510;29;20049;-81
2023/10/28 02:29:33;;;;;;;1.05;0.20;;;;;;;9.30;81.92;98831.47;4868373;29;20058;-80
2023/10/28 02:32:00;;;;;;;1.00;0.13;;;;;;;9.29;81.91;98835.00;4842026;29;20049;-82
2023/10/28 02:34:27;;;;;;;0.60;0.10;;;;;;;9.23;82.45;98832.59;4833264;29;20081;-81
2023/10/28 02:36:54;;;;;;;1.30;0.20;;;;;;;9.18;82.76;98830.16;4850056;29;20389;-82
2023/10/28 02:39:21;;;;;;;0.90;0.10;;;;;;;9.22;82.38;98831.75;4831034;29;20053;-82
2023/10/28 02:41:48;;;;;;;0.52;0.25;;;;;;;9.23;82.33;98827.38;4847008;29;20045;-82
2023/10/28 02:44:14;;;;;;;1.73;0.28;;;;;;;9.22;82.70;98825.66;4848668;29;20053;-81
2023/10/28 02:46:41;;;;;;;1.13;0.20;;;;;;;9.24;82.96;98826.47;4849602;29;20057;-82
2023/10/28 02:49:08;;;;;;;1.88;0.28;;;;;;;9.23;82.87;98833.44;4840079;29;20486;-81
2023/10/28 02:51:35;;;;;;;0.22;0.10;;;;;;;9.25;83.23;98830.78;4844258;29;20057;-82
2023/10/28 02:54:02;;;;;;;0.57;0.15;;;;;;;9.28;82.79;98828.03;4849695;29;20046;-82
2023/10/28 02:56:29;;;;;;;1.85;0.20;;;;;;;9.26;83.16;98826.41;4861102;29;20068;-82
2023/10/28 02:58:56;;;;;;;1.08;0.20;;;;;;;9.25;83.16;98836.00;4854569;29;20056;-82
2023/10/28 03:01:23;;;;;;;0.50;0.28;;;;;;;9.23;83.24;98833.44;4851325;29;20049;-82
2023/10/28 03:03:50;;;;;;;1.33;0.20;;;;;;;9.29;83.12;98831.53;4841221;29;20121;-82
2023/10/28 03:06:16;;;;;;;1.33;0.20;;;;;;;9.32;82.91;98840.13;4829584;29;20078;-81
2023/10/28 03:08:43;;;;;;;1.40;0.20;;;;;;;9.35;82.91;98833.94;4832407;29;20061;-82
2023/10/28 03:11:10;;;;;;;1.02;0.30;;;;;;;9.29;83.25;98832.38;4828584;29;20050;-82
2023/10/28 03:13:37;;;;;;;3.67;0.30;;;;;;;9.32;83.24;98832.25;4845924;29;20057;-81
2023/10/28 03:16:04;;;;;;;0.77;0.20;;;;;;;9.34;83.31;98840.94;4841694;29;20397;-81
2023/10/28 03:18:31;;;;;;;1.27;0.20;;;;;;;9.31;83.72;98832.31;4843466;29;20102;-81
2023/10/28 03:20:58;;;;;;;3.70;0.30;;;;;;;9.35;83.42;98841.78;4832737;29;20057;-82
2023/10/28 03:23:25;;;;;;;0.75;0.30;;;;;;;9.39;83.29;98838.16;4830128;29;20056;-82
2023/10/28 03:25:52;;;;;;;1.48;0.47;;;;;;;9.36;83.62;98838.25;4842697;29;20434;-82
2023/10/28 03:28:19;;;;;;;1.90;0.25;;;;;;;9.34;83.76;98840.94;4844853;29;20089;-82
2023/10/28 03:30:45;;;;;;;2.00;0.30;;;;;;;9.36;83.91;98841.72;4843432;29;20054;-80
2023/10/28 03:33:12;;;;;;;1.83;0.43;;;;;;;9.35;84.11;98853.09;4835340;29;20054;-82
2023/10/28 03:35:39;;;;;;;1.48;0.25;;;;;;;9.29;84.88;98848.09;4843957;29;20053;-81
2023/10/28 03:38:06;;;;;;;0.73;0.22;;;;;;;9.27;85.17;98852.53;4845793;29;20076;-81
2023/10/28 03:40:33;;;;;;;3.25;0.57;;;;;;;9.29;85.32;98853.31;4841733;29;20057;-81
2023/10/28 03:43:00;;;;;;;2.65;0.40;;;;;;;9.26;85.31;98850.81;4843097;29;20140;-81
2023/10/28 03:45:28;;;;;;;1.25;0.20;;;;;;;9.26;85.44;98847.34;4876776;29;20056;-82
2023/10/28 03:47:55;;;;;;;0.85;0.60;;;;;;;9.28;85.18;98856.00;4853914;29;20498;-82
2023/10/28 03:50:21;;;;;;;2.58;0.38;;;;;;;9.26;85.45;98857.81;4846219;29;20060;-80
2023/10/28 03:52:48;;;;;;;0.55;0.30;;;;;;;9.27;85.41;98860.38;4848791;29;20053;-81
2023/10/28 03:55:15;;;;;;;0.73;0.20;;;;;;;9.26;85.45;98858.66;4841671;29;20045;-81
2023/10/28 03:57:42;;;;;;;3.03;0.30;;;;;;;9.27;85.54;98855.16;4831438;29;20518;-81
2023/10/28 04:00:11;;;;;;;1.02;0.30;;;;;;;9.27;85.67;98860.38;4829829;29;20054;-82
2023/10/28 04:02:38;;;;;;;2.78;0.43;;;;;;;9.28;85.54;98856.84;4842572;29;20057;-81
2023/10/28 04:05:05;;;;;;;2.05;0.30;;;;;;;9.34;84.81;98848.78;4843533;29;20049;-82
2023/10/28 04:07:32;;;;;;;1.83;0.50;;;;;;;9.34;85.04;98850.53;4839187;29;20562;-81
2023/10/28 04:10:04;;;;;;;0.98;0.50;;;;;;;9.31;85.10;98856.75;4844230;29;20053;-81
2023/10/28 04:12:32;;;;;;;1.67;0.32;;;;;;;9.30;85.13;98857.66;4846714;29;20045;-81
2023/10/28 04:14:59;;;;;;;1.40;0.22;;;;;;;9.30;85.02;98865.50;4850023;29;20049;-79
2023/10/28 04:17:30;;;;;;;2.65;0.50;;;;;;;9.23;85.73;98859.63;4840602;29;20414;-82
2023/10/28 04:19:58;;;;;;;2.60;0.50;;;;;;;9.14;86.87;98874.78;4845656;29;20901;-79
2023/10/28 04:22:25;;;;;;;2.63;0.40;;;;;;;9.11;87.13;98869.66;4846171;29;20072;-82
2023/10/28 04:24:52;;;;;;;1.20;0.40;;;;;;;9.11;87.09;98869.66;4843452;29;20111;-81
2023/10/28 04:27:19;;;;;;;4.22;0.47;;;;;;;9.11;86.94;98869.66;4828791;29;20061;-82
2023/10/28 04:29:46;;;;;;;2.35;0.47;;;;;;;9.10;87.03;98867.97;4872961;29;20061;-82
2023/10/28 04:32:17;;;;;;;0.98;0.45;;;;;;;9.07;87.11;98873.28;4835895;29;20049;-82
2023/10/28 04:34:44;;;;;;;0.75;0.30;;;;;;;9.09;86.93;98871.47;4849518;29;20050;-82
2023/10/28 04:37:24;;;;;;;1.23;0.30;;;;;;;9.10;86.78;98862.72;4846106;29;20144;-82
2023/10/28 04:39:51;;;;;;;1.02;0.40;;;;;;;9.11;86.73;98874.88;4841595;29;20100;-82
2023/10/28 04:42:21;;;;;;;4.88;0.40;;;;;;;9.12;86.57;98866.97;4834302;29;20280;-81
2023/10/28 04:44:48;;;;;;;4.07;0.70;;;;;;;9.16;86.00;98862.50;4840775;29;20081;-81
2023/10/28 04:47:15;;;;;;;1.13;0.50;;;;;;;9.12;86.81;98863.53;4849841;29;20052;-82
2023/10/28 04:49:42;;;;;;;2.25;0.60;;;;;;;9.11;86.55;98857.44;4854128;29;20071;-81
2023/10/28 04:52:09;;;;;;;1.85;0.80;;;;;;;9.11;86.80;98862.69;4839230;29;20483;-81
2023/10/28 04:54:38;;;;;;;1.02;0.35;;;;;;;9.12;85.95;98861.75;4879018;29;20129;-82
2023/10/28 04:57:05;;;;;;;3.70;0.57;;;;;;;9.13;86.12;98865.25;4839575;29;20049;-80
2023/10/28 04:59:32;;;;;;;0.45;0.30;;;;;;;9.13;86.07;98854.78;4851067;29;20065;-81
2023/10/28 05:01:59;;;;;;;2.17;0.35;;;;;;;9.03;86.38;98847.22;4847683;29;20058;-81
2023/10/28 05:04:27;;;;;;;1.90;0.40;;;;;;;8.99;86.54;98850.00;4846433;29;20080;-82
2023/10/28 05:06:54;;;;;;;1.38;0.32;;;;;;;8.90;86.89;98843.31;4846200;29;20078;-83
2023/10/28 05:09:21;;;;;;;0.98;0.38;;;;;;;8.90;86.78;98835.47;4841359;29;20085;-82
2023/10/28 05:11:56;;;;;;;2.10;0.30;;;;;;;8.90;87.20;98843.31;4832238;29;20089;-79
2023/10/28 05:14:23;;;;;;;1.27;0.40;;;;;;;8.89;87.22;98844.22;4867711;29;20090;-81
2023/10/28 05:16:51;;;;;;;1.73;0.30;;;;;;;8.92;87.83;98843.25;4855948;29;20517;-80
2023/10/28 05:19:20;;;;;;;0.60;0.38;;;;;;;8.93;87.62;98847.59;4846344;29;20081;-81
2023/10/28 05:21:47;;;;;;;3.85;0.57;;;;;;;8.95;87.55;98843.16;4848431;29;20144;-80
2023/10/28 05:24:15;;;;;;;1.83;0.28;;;;;;;8.94;87.72;98852.78;4836924;29;20060;-80
2023/10/28 05:26:43;;;;;;;4.70;0.40;;;;;;;8.94;87.59;98858.00;4844062;29;20057;-80
2023/10/28 05:29:10;;;;;;;2.80;0.50;;;;;;;8.94;87.47;98857.16;4833135;29;20050;-82
2023/10/28 05:31:37;;;;;;;0.98;0.50;;;;;;;8.96;87.73;98861.41;4857165;29;20140;-81
2023/10/28 05:34:04;;;;;;;1.50;0.85;;;;;;;8.95;87.83;98859.72;4839341;29;20053;-77
2023/10/28 05:36:30;;;;;;;0.90;0.30;;;;;;;8.94;88.03;98857.16;4842991;29;20077;-82
2023/10/28 05:38:59;;;;;;;2.70;0.43;;;;;;;8.94;88.03;98865.84;4849291;29;20061;-81
2023/10/28 05:41:26;;;;;;;1.27;0.52;;;;;;;8.93;88.03;98866.75;4840242;29;20068;-80
2023/10/28 05:43:52;;;;;;;1.40;0.25;;;;;;;8.91;87.89;98857.25;4853589;29;20049;-81
2023/10/28 05:46:22;;;;;;;1.63;0.43;;;;;;;8.92;87.61;98859.84;4839754;29;20081;-81
2023/10/28 05:48:50;;;;;;;2.95;0.40;;;;;;;8.90;87.75;98861.63;4850967;29;20046;-81
2023/10/28 05:51:17;;;;;;;1.52;0.43;;;;;;;8.92;88.16;98862.44;4847174;29;20140;-81
2023/10/28 05:53:44;;;;;;;4.05;0.40;;;;;;;8.88;87.85;98869.53;4844885;29;20054;-82
2023/10/28 05:56:11;;;;;;;2.50;0.45;;;;;;;8.90;88.19;98871.25;4824728;29;20049;-80
2023/10/28 05:58:37;;;;;;;2.00;0.47;;;;;;;8.87;88.10;98872.19;4840448;29;20110;-82
2023/10/28 06:01:04;;;;;;;0.52;0.40;;;;;;;8.88;88.53;98873.91;4846137;29;20053;-81
2023/10/28 06:03:31;;;;;;;1.63;0.50;;;;;;;8.88;88.18;98874.75;4844708;29;20049;-72
2023/10/28 06:05:58;;;;;;;2.97;0.55;;;;;;;8.86;88.06;98880.94;4846249;29;20069;-73
2023/10/28 06:08:24;;;;;;;1.88;0.38;;;;;;;8.88;88.18;98880.00;4828098;29;20065;-73
2023/10/28 06:10:51;;;;;;;1.75;0.30;;;;;;;8.85;87.98;98884.50;4842114;29;20084;-73
2023/10/28 06:13:18;;;;;;;0.65;0.30;;;;;;;8.84;88.14;98885.38;4849631;29;20057;-72
2023/10/28 06:15:46;;;;;;;0.95;0.30;;;;;;;8.85;87.89;98895.78;4841857;29;20050;-82
2023/10/28 06:18:13;;;;;;;0.57;0.40;;;;;;;8.87;87.70;98895.75;4844583;29;20050;-81
2023/10/28 06:20:40;;;;;;;1.92;0.30;;;;;;;8.88;87.68;98890.47;4846144;29;20068;-82
2023/10/28 06:23:07;;;;;;;1.85;0.30;;;;;;;8.91;87.10;98896.47;4851289;29;20056;-83
2023/10/28 06:25:37;;;;;;;2.35;0.52;;;;;;;8.91;87.13;98894.75;4843801;29;20053;-81
2023/10/28 06:28:05;;;;;;;2.35;0.40;;;;;;;8.93;87.02;98898.16;4871498;29;20060;-79
2023/10/28 06:30:33;;;;;;;0.98;0.30;;;;;;;8.96;86.24;98898.03;4870447;29;20519;-83
2023/10/28 06:33:01;;;;;;;1.55;0.30;;;;;;;8.95;86.41;98896.34;4840784;29;20132;-83
2023/10/28 06:35:28;;;;;;;1.90;0.30;;;;;;;8.95;86.11;98901.59;4839826;29;20049;-82
2023/10/28 06:37:55;;;;;;;2.22;0.30;;;;;;;8.95;85.96;98909.44;4846716;29;20074;-83
2023/10/28 06:40:23;;;;;;;1.27;0.32;;;;;;;8.99;85.63;98915.41;4838856;29;20078;-83
2023/10/28 06:42:51;;;;;;;1.75;0.25;;;;;;;8.99;85.74;98913.66;4843949;29;20061;-84
2023/10/28 06:45:18;;;;;;;2.03;0.35;;;;;;;8.98;85.79;98917.19;4840405;29;20054;-83
2023/10/28 06:47:45;;;;;;;0.95;0.40;;;;;;;9.01;85.58;98924.94;4854382;29;20126;-84
2023/10/28 06:50:12;;;;;;;2.28;0.40;;;;;;;9.06;85.43;98924.78;4850211;29;20068;-83
2023/10/28 06:52:39;;;;;;;0.45;0.38;;;;;;;9.04;85.67;98927.44;4849852;29;20502;-83
2023/10/28 06:55:06;;;;;;;8.63;0.63;;;;;;;9.09;85.07;98939.53;4838296;29;20052;-83
2023/10/28 06:57:33;;;;;;;2.83;0.40;;;;;;;9.07;85.06;98936.09;4860331;29;20064;-83
2023/10/28 06:59:59;;;;;;;1.15;0.30;;;;;;;9.10;85.27;98930.78;4837113;29;20056;-81
2023/10/28 07:02:26;;;;;;;2.35;0.38;;;;;;;9.09;85.37;98942.97;4841166;29;20505;-81
2023/10/28 07:04:53;;;;;;;2.15;0.60;;;;;;;9.09;85.61;98936.91;4833348;29;20050;-80
2023/10/28 07:07:20;;;;;;;2.58;0.40;;;;;;;9.07;86.25;98946.53;4840562;29;20053;-82
2023/10/28 07:09:47;;;;;;;2.33;0.32;;;;;;;8.97;86.65;98944.25;4843853;29;20057;-82
2023/10/28 07:12:14;;;;;;;0.60;0.30;;;;;;;8.93;87.10;98940.00;4834589;29;20052;-81
2023/10/28 07:14:41;;;;;;;1.45;0.30;;;;;;;8.90;87.20;98942.72;4841613;29;20092;-81
2023/10/28 07:17:11;;;;;;;1.95;0.35;;;;;;;8.88;87.36;98941.94;4848226;29;20084;-81
2023/10/28 07:19:38;;;;;;;0.93;0.28;;;;;;;8.91;87.15;98943.56;4847390;29;20053;-82
2023/10/28 07:22:05;;;;;;;2.70;0.30;;;;;;;8.93;86.97;98949.63;4843054;29;20188;-82
2023/10/28 07:24:34;;;;;;;2.42;0.50;;;;;;;8.91;87.59;98941.84;4850047;29;20054;-83
2023/10/28 07:27:05;;;;;;;0.50;0.32;;;;;;;8.91;87.77;98949.69;4835951;29;20108;-83
2023/10/28 07:29:32;;;;;;;2.38;0.40;;;;;;;8.92;87.50;98948.78;4834090;29;20049;-83
2023/10/28 07:31:59;;;;;;;2.83;0.45;;;;;;;8.94;87.48;98954.81;4836824;29;20068;-80
2023/10/28 07:34:26;;;;;;;1.98;0.30;;;;;;;9.00;87.25;98959.84;4831474;29;20103;-82
2023/10/28 07:36:53;;;;;;;1.42;0.30;;;;;;;9.07;86.90;98967.47;4875575;29;20136;-81
2023/10/28 07:39:20;;;;;;;3.03;0.45;;;;;;;9.09;86.93;98976.16;4835976;29;20053;-82
2023/10/28 07:41:47;;;;;;;2.30;0.35;;;;;;;9.14;87.03;98984.69;4847251;29;20545;-81
2023/10/28 07:44:14;;;;;;;1.80;0.70;;;;;;;9.20;86.97;98979.28;4839934;29;20061;-82
2023/10/28 07:46:41;;;;;;;1.30;0.40;;;;;;;9.19;86.71;98978.41;4840457;29;20053;-82
2023/10/28 07:49:08;;;;;;;2.33;0.40;;;;;;;9.23;87.02;98984.41;4837124;29;20403;-82
2023/10/28 07:51:35;;;;;;;3.53;0.55;;;;;;;9.24;87.28;98991.38;4835439;29;20089;-82
2023/10/28 07:54:03;;;;;;;0.60;0.35;;;;;;;9.27;86.80;98998.25;4836217;29;20046;-81
2023/10/28 07:56:31;;;;;;;1.63;0.40;;;;;;;9.30;86.79;99001.63;4840834;29;20053;-82
2023/10/28 07:58:59;;;;;;;2.03;0.88;;;;;;;9.31;86.77;99003.34;4879944;29;20061;-82
2023/10/28 08:01:27;;;;;;;2.08;0.30;;;;;;;9.36;86.37;99005.81;4850190;29;20421;-82
2023/10/28 08:03:54;;;;;;;0.65;0.30;;;;;;;9.40;85.92;99008.28;4852441;29;20056;-83
2023/10/28 08:06:21;;;;;;;1.30;0.30;;;;;;;9.47;85.95;99021.16;4851214;29;20049;-83
2023/10/28 08:09:04;;;;;;;2.00;0.45;;;;;;;9.50;86.24;99008.84;4846238;29;20072;-81
2023/10/28 08:11:31;;;;;;;3.97;0.50;;;;;;;9.52;85.98;99016.63;4849915;29;20054;-80
2023/10/28 08:14:00;;;;;;;0.70;0.30;;;;;;;9.57;85.62;99014.69;4836843;29;20073;-82
2023/10/28 08:16:31;;;;;;;0.90;0.50;;;;;;;9.64;85.29;99010.13;4818873;29;20136;-82
2023/10/28 08:18:58;;;;;;;1.25;0.40;;;;;;;9.73;84.35;99015.91;4844814;29;20047;-80
2023/10/28 08:21:25;;;;;;;0.77;0.40;;;;;;;9.81;84.09;99012.19;4834722;29;20056;-82
2023/10/28 08:23:52;;;;;;;1.25;0.35;;;;;;;9.96;84.34;99016.84;4840797;29;20065;-81
2023/10/28 08:26:19;;;;;;;3.30;0.43;;;;;;;10.12;82.92;99025.03;4852553;29;20060;-82
2023/10/28 08:28:52;;;;;;;1.75;0.50;;;;;;;10.14;82.58;99020.59;4848197;29;20054;-83
2023/10/28 08:31:19;;;;;;;0.57;0.28;;;;;;;10.19;82.61;99023.91;4816903;29;20062;-83
2023/10/28 08:33:50;;;;;;;2.88;0.50;;;;;;;10.23;83.17;99020.25;4841573;29;20058;-82
2023/10/28 08:36:17;;;;;;;2.13;0.45;;;;;;;10.27;82.45;99021.03;4833128;29;20142;-82
2023/10/28 08:38:47;;;;;;;0.52;0.30;;;;;;;10.36;81.88;99030.34;4842045;29;20046;-82
2023/10/28 08:41:21;;;;;;;1.20;0.38;;;;;;;10.44;81.19;99029.16;4838246;29;20085;-81
2023/10/28 08:43:50;;;;;;;2.60;0.52;;;;;;;10.48;80.69;99035.13;4846912;29;20102;-81
2023/10/28 08:46:17;;;;;;;2.10;0.70;;;;;;;10.50;81.08;99028.06;4841420;29;20064;-83
2023/10/28 08:48:44;;;;;;;1.55;0.52;;;;;;;10.53;80.90;99032.31;4860825;29;20138;-81
2023/10/28 08:51:12;;;;;;;1.10;0.30;;;;;;;10.58;81.02;99040.91;4844673;29;20060;-81
2023/10/28 08:53:40;;;;;;;2.67;0.38;;;;;;;10.61;79.68;99032.91;4828123;29;20141;-81
2023/10/28 08:56:07;;;;;;;2.50;0.35;;;;;;;10.61;80.30;99035.53;4836162;29;20063;-82
2023/10/28 08:58:37;;;;;;;2.55;0.85;;;;;;;10.61;80.46;99041.63;4845051;29;20050;-80
2023/10/28 09:01:04;;;;;;;2.20;0.40;;;;;;;10.65;80.56;99041.53;4833846;29;20067;-82
2023/10/28 09:03:31;;;;;;;1.48;0.40;;;;;;;10.91;79.96;99032.66;4858241;29;20077;-83
2023/10/28 09:06:01;;;;;;;3.30;0.20;;;;;;;10.90;79.91;99036.19;4855273;29;20057;-82
2023/10/28 09:08:28;;;;;;;1.30;0.30;;;;;;;10.94;78.42;99027.28;4860044;29;20046;-82
2023/10/28 09:10:57;;;;;;;3.13;0.38;;;;;;;11.06;78.95;99039.91;4838755;29;20447;-83
2023/10/28 09:13:24;;;;;;;4.75;0.43;;;;;;;11.14;77.75;99035.22;4822995;29;20187;-83
2023/10/28 09:15:51;;;;;;;2.08;0.52;;;;;;;11.41;78.47;99042.94;4846323;29;20049;-83
2023/10/28 09:18:18;;;;;;;1.88;0.63;;;;;;;11.50;77.60;99046.94;4833339;29;20050;-83
2023/10/28 09:20:46;;;;;;;1.50;0.20;;;;;;;11.67;78.18;99043.59;4834189;29;20054;-83
2023/10/28 09:23:13;;;;;;;2.28;0.50;;;;;;;11.57;77.05;99037.03;4827887;29;20140;-83
2023/10/28 09:25:40;;;;;;;2.20;0.40;;;;;;;11.44;76.32;99034.91;4834394;29;20065;-82
2023/10/28 09:28:15;;;;;;;0.43;0.30;;;;;;;11.49;76.85;99038.19;4838681;29;20068;-83
2023/10/28 09:30:44;;;;;;;2.58;0.38;;;;;;;11.60;75.33;99037.75;4838540;29;20057;-84
2023/10/28 09:33:11;;;;;;;1.40;0.40;;;;;;;11.71;75.25;99039.94;4841996;29;20056;-84
2023/10/28 09:35:39;;;;;;;1.98;0.90;;;;;;;11.80;74.48;99038.69;4827739;29;20510;-83
2023/10/28 09:38:08;;;;;;;0.93;0.40;;;;;;;11.93;75.09;99034.63;4826650;29;20145;-83
2023/10/28 09:40:34;;;;;;;1.80;0.43;;;;;;;12.05;74.64;99032.41;4842377;29;20160;-84
2023/10/28 09:43:03;;;;;;;2.30;0.82;;;;;;;12.13;73.44;99036.41;4849515;29;20148;-84
2023/10/28 09:45:31;;;;;;;3.95;0.68;;;;;;;12.28;73.68;99036.66;4842755;29;20417;-84
2023/10/28 09:48:02;;;;;;;2.25;0.30;;;;;;;12.25;72.99;99044.69;4848341;29;20057;-84
2023/10/28 09:50:30;;;;;;;1.08;0.50;;;;;;;12.24;73.45;99032.44;4834515;29;20061;-84
2023/10/28 09:52:57;;;;;;;1.33;0.60;;;;;;;12.28;71.87;99034.03;4848009;29;20064;-83
2023/10/28 09:55:24;;;;;;;1.77;0.40;;;;;;;12.48;73.25;99035.75;4840755;29;20065;-83
2023/10/28 09:58:01;;;;;;;2.78;0.40;;;;;;;12.47;71.33;99045.44;4840192;29;20077;-83
2023/10/28 10:00:29;;;;;;;3.53;0.40;;;;;;;12.47;72.09;99044.56;4835988;29;20045;-83
2023/10/28 10:03:25;;;;;;;3.65;0.90;;;;;;;12.43;71.38;99033.34;4863788;29;20051;-83
2023/10/28 10:05:53;;;;;;;2.72;0.50;;;;;;;12.44;71.97;99032.44;4840140;29;20132;-83
2023/10/28 10:08:21;;;;;;;3.78;0.70;;;;;;;12.38;71.10;99042.38;4834207;29;20050;-84
2023/10/28 10:10:50;;;;;;;2.72;0.65;;;;;;;12.35;70.51;99045.97;4848074;29;20461;-84
2023/10/28 10:13:17;;;;;;;5.97;0.52;;;;;;;12.36;71.39;99037.19;4841871;29;20050;-84
2023/10/28 10:15:57;;;;;;;2.58;0.63;;;;;;;12.34;70.46;99053.03;4842514;29;20303;-84
2023/10/28 10:18:32;;;;;;;1.92;0.45;;;;;;;12.37;70.74;99062.56;4815444;29;20057;-83
2023/10/28 10:21:11;;;;;;;5.35;1.25;;;;;;;12.37;70.71;99044.16;4835357;29;20050;-81
2023/10/28 10:23:43;;;;;;;2.08;0.40;;;;;;;12.43;70.42;99054.41;4843263;29;20061;-83
2023/10/28 10:26:25;;;;;;;2.05;0.32;;;;;;;12.43;70.68;99051.75;4833531;29;20049;-81
2023/10/28 10:28:54;;;;;;;2.58;0.65;;;;;;;12.41;70.02;99045.72;4841548;29;20076;-84
2023/10/28 10:31:40;;;;;;;2.42;0.50;;;;;;;12.46;71.08;99049.00;4829064;29;20046;-86
2023/10/28 10:34:30;;;;;;;4.85;0.57;;;;;;;12.51;71.54;99047.03;4835985;29;20144;-85
2023/10/28 10:36:57;;;;;;;3.92;0.60;;;;;;;12.46;71.52;99045.53;4835451;29;20406;-86
2023/10/28 10:39:24;;;;;;;3.28;0.75;;;;;;;12.45;70.92;99047.28;4845431;29;20049;-85
2023/10/28 10:41:55;;;;;;;2.63;0.57;;;;;;;12.45;71.00;99047.28;4845344;29;20566;-85
2023/10/28 10:44:33;;;;;;;1.83;0.70;;;;;;;12.45;71.62;99044.66;4838072;29;20053;-85
2023/10/28 10:47:01;;;;;;;3.03;0.50;;;;;;;12.40;71.72;99046.63;4841215;29;20071;-86
2023/10/28 10:49:32;;;;;;;3.55;0.85;;;;;;;12.38;72.98;99045.84;4843535;29;20533;-85
2023/10/28 10:52:02;;;;;;;1.65;0.40;;;;;;;12.29;72.40;99049.72;4849565;29;20060;-86
2023/10/28 10:54:34;;;;;;;1.55;0.40;;;;;;;12.34;72.35;99044.28;4846770;29;20462;-86
2023/10/28 10:57:02;;;;;;;0.50;0.40;;;;;;;12.30;73.03;99053.25;4855484;29;20132;-85
2023/10/28 10:59:31;;;;;;;2.13;0.65;;;;;;;12.23;73.40;99044.75;4841847;29;20065;-85
2023/10/28 11:02:00;;;;;;;3.92;0.50;;;;;;;12.24;73.06;99048.22;4838827;29;20050;-85
2023/10/28 11:04:31;;;;;;;1.88;0.52;;;;;;;12.23;72.55;99043.91;4836366;29;20085;-85
2023/10/28 11:06:58;;;;;;;1.88;0.43;;;;;;;12.20;74.40;99041.41;4831384;29;20106;-86
2023/10/28 11:09:28;;;;;;;2.28;0.47;;;;;;;12.10;73.36;99046.22;4840828;29;20061;-85
2023/10/28 11:11:55;;;;;;;2.22;0.50;;;;;;;12.12;74.48;99050.50;4854077;29;20053;-86
2023/10/28 11:14:24;;;;;;;2.40;0.57;;;;;;;12.06;74.28;99050.75;4835063;29;20148;-85
2023/10/28 11:16:52;;;;;;;2.05;0.40;;;;;;;12.08;73.97;99045.41;4850858;29;20459;-85
2023/10/28 11:19:19;;;;;;;2.35;0.30;;;;;;;12.08;74.49;99048.91;4853479;29;20049;-85
2023/10/28 11:21:46;;;;;;;2.97;0.55;;;;;;;12.00;74.57;99040.50;4862788;29;20063;-89
2023/10/28 11:24:14;;;;;;;2.22;0.60;;;;;;;11.98;74.60;99048.44;4833825;29;20049;-85
2023/10/28 11:26:44;;;;;;;1.35;0.40;;;;;;;11.94;74.94;99041.59;4857927;29;20053;-85
2023/10/28 11:29:14;;;;;;;3.30;0.50;;;;;;;11.88;75.07;99051.53;4851668;29;20140;-85
2023/10/28 11:31:41;;;;;;;0.55;0.30;;;;;;;11.79;76.05;99050.97;4846022;29;20120;-85
2023/10/28 11:34:08;;;;;;;1.55;0.52;;;;;;;11.71;76.09;99039.94;4846447;29;20077;-87
2023/10/28 11:36:36;;;;;;;4.20;0.40;;;;;;;11.70;77.00;99040.84;4860506;29;20056;-85
2023/10/28 11:39:13;;;;;;;2.95;0.43;;;;;;;11.70;76.37;99038.22;4863896;29;20041;-85
2023/10/28 11:41:47;;;;;;;1.60;0.50;;;;;;;11.75;76.22;99045.94;4863199;29;20084;-88
2023/10/28 11:44:15;;;;;;;3.17;0.50;;;;;;;11.68;76.67;99045.31;4844967;29;20058;-85